createdAt,value
2022-11-01T00:01:51.261Z,4.15
2022-11-01T00:04:19.421Z,3.22
2022-11-01T00:06:46.417Z,3.55
2022-11-01T00:09:13.582Z,4.25
2022-11-01T00:11:40.762Z,3.80
2022-11-01T00:14:08.291Z,4.35
2022-11-01T00:16:35.297Z,4.45
2022-11-01T00:19:02.349Z,5.32
2022-11-01T00:21:29.363Z,5.70
2022-11-01T00:23:56.520Z,5.35
2022-11-01T00:26:24.864Z,4.90
2022-11-01T00:28:53.001Z,4.85
2022-11-01T00:31:20.799Z,4.60
2022-11-01T00:33:47.810Z,5.38
2022-11-01T00:36:15.675Z,5.93
2022-11-01T00:38:42.862Z,5.38
2022-11-01T00:41:09.937Z,5.13
2022-11-01T00:43:37.096Z,5.28
2022-11-01T00:46:04.802Z,6.15
2022-11-01T00:48:32.297Z,5.40
2022-11-01T00:50:59.303Z,5.57
2022-11-01T00:53:26.353Z,5.20
2022-11-01T00:55:53.676Z,4.50
2022-11-01T00:58:20.686Z,5.63
2022-11-01T01:00:48.355Z,6.28
2022-11-01T01:03:15.390Z,5.90
2022-11-01T01:05:42.516Z,6.00
2022-11-01T01:08:09.705Z,6.50
2022-11-01T01:10:36.912Z,5.57
2022-11-01T01:13:04.259Z,5.72
2022-11-01T01:15:31.591Z,5.03
2022-11-01T01:17:58.864Z,4.55
2022-11-01T01:20:26.123Z,4.50
2022-11-01T01:22:53.392Z,4.88
2022-11-01T01:25:20.979Z,5.13
2022-11-01T01:27:48.012Z,4.85
2022-11-01T01:30:15.629Z,4.95
2022-11-01T01:32:43.048Z,4.35
2022-11-01T01:35:10.500Z,5.18
2022-11-01T01:37:37.642Z,4.47
2022-11-01T01:40:06.230Z,4.80
2022-11-01T01:42:38.809Z,4.25
2022-11-01T01:45:07.441Z,4.05
2022-11-01T01:47:37.393Z,4.35
2022-11-01T01:50:22.403Z,4.57
2022-11-01T01:52:52.191Z,4.60
2022-11-01T01:55:25.716Z,5.05
2022-11-01T01:57:55.131Z,5.00
2022-11-01T02:00:22.474Z,4.40
2022-11-01T02:02:50.998Z,4.40
2022-11-01T02:05:37.387Z,4.00
2022-11-01T02:08:06.897Z,4.25
2022-11-01T02:10:34.598Z,4.78
2022-11-01T02:13:01.752Z,4.13
2022-11-01T02:15:40.209Z,3.60
2022-11-01T02:18:26.859Z,4.30
2022-11-01T02:21:23.797Z,4.93
2022-11-01T02:24:16.388Z,4.30
2022-11-01T02:27:02.982Z,4.20
2022-11-01T02:29:48.065Z,4.88
2022-11-01T02:32:29.311Z,5.20
2022-11-01T02:35:04.411Z,5.00
2022-11-01T02:37:52.402Z,5.15
2022-11-01T02:40:48.855Z,4.53
2022-11-01T02:43:20.930Z,4.22
2022-11-01T02:45:51.546Z,4.80
2022-11-01T02:48:21.689Z,5.15
2022-11-01T02:50:57.337Z,4.72
2022-11-01T02:53:24.871Z,6.10
2022-11-01T02:55:53.345Z,4.97
2022-11-01T02:58:27.485Z,5.97
2022-11-01T03:00:56.862Z,5.72
2022-11-01T03:03:33.827Z,5.40
2022-11-01T03:06:08.825Z,5.40
2022-11-01T03:08:40.749Z,6.00
2022-11-01T03:11:17.882Z,7.38
2022-11-01T03:14:00.801Z,6.68
2022-11-01T03:17:00.594Z,6.88
2022-11-01T03:19:55.038Z,6.85
2022-11-01T03:22:36.649Z,6.60
2022-11-01T03:25:03.793Z,6.00
2022-11-01T03:27:33.605Z,6.20
2022-11-01T03:30:08.175Z,6.35
2022-11-01T03:32:43.489Z,5.35
2022-11-01T03:35:15.835Z,6.32
2022-11-01T03:37:46.231Z,5.38
2022-11-01T03:40:17.015Z,6.45
2022-11-01T03:42:50.496Z,6.82
2022-11-01T03:47:52.515Z,6.70
2022-11-01T03:50:26.032Z,6.70
2022-11-01T03:52:53.651Z,6.75
2022-11-01T03:55:22.480Z,5.85
2022-11-01T03:57:57.889Z,5.32
2022-11-01T04:00:29.668Z,6.05
2022-11-01T04:02:57.780Z,6.30
2022-11-01T04:05:26.963Z,7.00
2022-11-01T04:07:54.439Z,6.90
2022-11-01T04:10:22.796Z,6.78
2022-11-01T04:12:51.143Z,7.57
2022-11-01T04:15:38.437Z,8.20
2022-11-01T04:18:44.434Z,6.72
2022-11-01T04:21:15.126Z,7.30
2022-11-01T04:23:43.282Z,7.43
2022-11-01T04:26:19.035Z,6.97
2022-11-01T04:28:57.118Z,7.10
2022-11-01T04:31:24.407Z,7.18
2022-11-01T04:33:51.583Z,8.00
2022-11-01T04:36:18.796Z,6.85
2022-11-01T04:38:48.169Z,7.30
2022-11-01T04:41:17.999Z,7.93
2022-11-01T04:43:49.483Z,6.70
2022-11-01T04:46:16.927Z,8.25
2022-11-01T04:48:43.962Z,8.23
2022-11-01T04:51:11.501Z,7.93
2022-11-01T04:53:38.798Z,7.53
2022-11-01T04:56:07.163Z,8.32
2022-11-01T04:58:35.078Z,6.93
2022-11-01T05:01:09.264Z,6.13
2022-11-01T05:03:36.392Z,6.32
2022-11-01T05:06:03.484Z,6.57
2022-11-01T05:08:30.483Z,6.15
2022-11-01T05:10:57.864Z,6.07
2022-11-01T05:13:25.152Z,6.07
2022-11-01T05:16:06.643Z,6.38
2022-11-01T05:18:41.910Z,5.82
2022-11-01T05:21:08.856Z,7.35
2022-11-01T05:23:35.892Z,7.38
2022-11-01T05:26:02.873Z,7.40
2022-11-01T05:28:29.856Z,7.28
2022-11-01T05:30:58.793Z,6.93
2022-11-01T05:33:25.864Z,7.22
2022-11-01T05:35:52.863Z,6.40
2022-11-01T05:38:19.993Z,5.70
2022-11-01T05:40:46.952Z,7.07
2022-11-01T05:43:15.112Z,7.88
2022-11-01T05:45:42.285Z,6.80
2022-11-01T05:48:09.452Z,7.28
2022-11-01T05:50:36.435Z,6.53
2022-11-01T05:53:10.375Z,6.30
2022-11-01T05:55:37.867Z,6.20
2022-11-01T05:58:05.944Z,6.00
2022-11-01T06:00:33.934Z,6.20
2022-11-01T06:03:01.509Z,6.38
2022-11-01T06:05:29.718Z,6.85
2022-11-01T06:07:57.417Z,5.50
2022-11-01T06:10:24.410Z,7.00
2022-11-01T06:12:51.384Z,5.97
2022-11-01T06:15:18.383Z,6.82
2022-11-01T06:17:45.460Z,6.80
2022-11-01T06:20:12.683Z,6.18
2022-11-01T06:22:40.058Z,5.20
2022-11-01T06:25:08.264Z,5.88
2022-11-01T06:27:35.547Z,6.30
2022-11-01T06:30:02.663Z,6.28
2022-11-01T06:32:29.838Z,5.70
2022-11-01T06:34:56.846Z,6.18
2022-11-01T06:37:23.775Z,6.78
2022-11-01T06:39:51.020Z,6.63
2022-11-01T06:42:18.272Z,6.50
2022-11-01T06:44:45.275Z,7.68
2022-11-01T06:47:12.906Z,6.28
2022-11-01T06:49:40.423Z,6.45
2022-11-01T06:52:08.189Z,6.32
2022-11-01T06:54:35.310Z,8.13
2022-11-01T06:57:02.292Z,6.75
2022-11-01T06:59:30.120Z,6.55
2022-11-01T07:01:57.119Z,7.53
2022-11-01T07:04:24.154Z,6.85
2022-11-01T07:06:51.143Z,6.47
2022-11-01T07:09:18.074Z,5.55
2022-11-01T07:11:45.047Z,6.68
2022-11-01T07:14:12.017Z,7.28
2022-11-01T07:16:41.703Z,7.20
2022-11-01T07:19:08.721Z,6.63
2022-11-01T07:21:35.762Z,6.80
2022-11-01T07:24:02.799Z,7.88
2022-11-01T07:26:29.803Z,6.68
2022-11-01T07:28:56.703Z,7.13
2022-11-01T07:31:25.451Z,6.88
2022-11-01T07:33:52.355Z,7.45
2022-11-01T07:36:19.329Z,6.68
2022-11-01T07:38:46.539Z,6.75
2022-11-01T07:41:13.461Z,6.85
2022-11-01T07:43:40.434Z,6.90
2022-11-01T07:46:07.670Z,7.47
2022-11-01T07:48:36.822Z,8.07
2022-11-01T07:51:06.061Z,7.43
2022-11-01T07:53:34.420Z,7.50
2022-11-01T07:56:02.321Z,7.38
2022-11-01T07:58:29.542Z,8.30
2022-11-01T08:00:57.087Z,8.02
2022-11-01T08:03:24.195Z,8.07
2022-11-01T08:05:51.167Z,8.10
2022-11-01T08:08:18.540Z,8.00
2022-11-01T08:10:46.367Z,7.88
2022-11-01T08:13:19.451Z,10.18
2022-11-01T08:15:47.683Z,8.80
2022-11-01T08:18:15.136Z,8.80
2022-11-01T08:20:42.617Z,8.95
2022-11-01T08:23:10.469Z,8.68
2022-11-01T08:25:37.948Z,10.55
2022-11-01T08:28:09.698Z,9.45
2022-11-01T08:30:38.722Z,9.77
2022-11-01T08:33:05.975Z,10.27
2022-11-01T08:35:34.698Z,9.52
2022-11-01T08:38:03.497Z,9.02
2022-11-01T08:40:32.213Z,9.13
2022-11-01T08:42:59.816Z,8.55
2022-11-01T08:45:27.504Z,9.45
2022-11-01T08:48:01.769Z,9.30
2022-11-01T08:50:28.990Z,8.52
2022-11-01T08:52:56.174Z,9.25
2022-11-01T08:55:23.393Z,10.15
2022-11-01T08:57:50.590Z,9.23
2022-11-01T09:00:18.128Z,9.98
2022-11-01T09:02:45.589Z,9.07
2022-11-01T09:05:12.849Z,8.73
2022-11-01T09:07:40.166Z,8.27
2022-11-01T09:10:08.106Z,9.85
2022-11-01T09:12:36.230Z,9.57
2022-11-01T09:15:04.411Z,10.32
2022-11-01T09:17:31.480Z,9.57
2022-11-01T09:19:58.752Z,11.93
2022-11-01T09:22:26.552Z,12.75
2022-11-01T09:24:55.497Z,13.93
2022-11-01T09:27:22.482Z,15.18
2022-11-01T09:29:51.902Z,14.73
2022-11-01T09:32:19.264Z,14.93
2022-11-01T09:34:48.997Z,14.48
2022-11-01T09:37:17.133Z,15.63
2022-11-01T09:39:44.089Z,13.88
2022-11-01T09:42:25.186Z,16.75
2022-11-01T09:44:55.669Z,20.65
2022-11-01T09:47:25.500Z,22.80
2022-11-01T09:50:04.372Z,24.08
2022-11-01T09:52:31.608Z,21.77
2022-11-01T09:54:59.222Z,23.27
2022-11-01T09:57:38.502Z,24.55
2022-11-01T10:00:15.008Z,28.15
2022-11-01T10:02:50.205Z,27.13
2022-11-01T10:05:38.651Z,27.17
2022-11-01T10:08:24.385Z,27.52
2022-11-01T10:11:16.503Z,26.08
2022-11-01T10:14:02.275Z,25.13
2022-11-01T10:16:29.515Z,26.17
2022-11-01T10:19:11.889Z,27.17
2022-11-01T10:21:47.764Z,26.88
2022-11-01T10:24:43.377Z,26.40
2022-11-01T10:28:00.882Z,27.45
2022-11-01T10:30:33.109Z,27.52
2022-11-01T10:33:12.393Z,28.88
2022-11-01T10:35:43.538Z,28.60
2022-11-01T10:38:54.199Z,29.58
2022-11-01T10:41:32.992Z,30.15
2022-11-01T10:44:03.858Z,30.65
2022-11-01T10:46:45.485Z,29.55
2022-11-01T10:49:46.204Z,28.70
2022-11-01T10:52:20.264Z,30.15
2022-11-01T10:54:50.948Z,29.42
2022-11-01T10:57:27.822Z,30.83
2022-11-01T10:59:56.990Z,31.65
2022-11-01T11:02:34.488Z,32.63
2022-11-01T11:05:01.660Z,31.92
2022-11-01T11:07:31.513Z,32.05
2022-11-01T11:12:34.644Z,31.98
2022-11-01T11:15:17.090Z,31.00
2022-11-01T11:17:46.795Z,31.85
2022-11-01T11:20:19.984Z,31.00
2022-11-01T11:22:47.581Z,30.17
2022-11-01T11:25:17.611Z,29.33
2022-11-01T11:27:47.703Z,29.45
2022-11-01T11:30:32.524Z,30.45
2022-11-01T11:33:01.994Z,30.38
2022-11-01T11:35:32.764Z,31.98
2022-11-01T11:38:01.884Z,32.65
2022-11-01T11:40:39.093Z,32.67
2022-11-01T11:43:24.594Z,32.05
2022-11-01T11:46:21.653Z,32.35
2022-11-01T11:48:56.708Z,33.33
2022-11-01T11:51:26.034Z,33.03
2022-11-01T11:54:20.894Z,34.20
2022-11-01T11:56:51.744Z,32.88
2022-11-01T11:59:26.294Z,34.47
2022-11-01T12:02:08.039Z,33.88
2022-11-01T12:04:41.978Z,34.95
2022-11-01T12:07:32.938Z,33.97
2022-11-01T12:10:03.782Z,33.78
2022-11-01T12:12:34.826Z,36.35
2022-11-01T12:15:05.485Z,33.17
2022-11-01T12:17:44.675Z,33.72
2022-11-01T12:20:18.564Z,33.90
2022-11-01T12:23:00.400Z,32.05
2022-11-01T12:25:27.530Z,33.47
2022-11-01T12:28:12.393Z,31.40
2022-11-01T12:30:41.723Z,32.30
2022-11-01T12:33:21.821Z,29.55
2022-11-01T12:35:52.046Z,30.08
2022-11-01T12:38:47.583Z,30.45
2022-11-01T12:41:32.034Z,28.38
2022-11-01T12:44:03.740Z,30.98
2022-11-01T12:46:57.785Z,28.50
2022-11-01T12:49:34.441Z,29.63
2022-11-01T12:52:24.763Z,31.38
2022-11-01T12:55:04.386Z,29.98
2022-11-01T12:57:32.597Z,30.50
2022-11-01T13:00:00.619Z,31.80
2022-11-01T13:02:38.243Z,31.05
2022-11-01T13:05:42.657Z,31.00
2022-11-01T13:08:21.629Z,29.60
2022-11-01T13:10:49.054Z,31.10
2022-11-01T13:13:24.655Z,29.88
2022-11-01T13:16:01.262Z,29.40
2022-11-01T13:18:46.347Z,30.85
2022-11-01T13:22:09.830Z,30.98
2022-11-01T13:24:45.972Z,32.05
2022-11-01T13:27:29.088Z,30.67
2022-11-01T13:30:18.190Z,31.33
2022-11-01T13:33:11.011Z,31.58
2022-11-01T13:36:02.743Z,31.23
2022-11-01T13:38:40.534Z,31.83
2022-11-01T13:41:21.762Z,30.95
2022-11-01T13:44:03.097Z,31.30
2022-11-01T13:46:41.947Z,30.80
2022-11-01T13:49:08.823Z,30.77
2022-11-01T13:51:38.910Z,26.10
2022-11-01T13:54:15.156Z,25.48
2022-11-01T13:56:56.525Z,25.63
2022-11-01T13:59:39.561Z,23.60
2022-11-01T14:02:27.603Z,19.58
2022-11-01T14:05:09.845Z,19.17
2022-11-01T14:07:45.794Z,17.00
2022-11-01T14:10:21.603Z,15.50
2022-11-01T14:13:15.354Z,16.15
2022-11-01T14:15:54.451Z,15.68
2022-11-01T14:18:22.185Z,14.55
2022-11-01T14:20:57.246Z,14.93
2022-11-01T14:23:29.950Z,15.63
2022-11-01T14:26:20.264Z,16.60
2022-11-01T14:28:56.965Z,16.02
2022-11-01T14:31:26.820Z,15.95
2022-11-01T14:33:59.912Z,15.50
2022-11-01T14:36:32.415Z,16.90
2022-11-01T14:39:09.357Z,15.75
2022-11-01T14:41:40.740Z,15.73
2022-11-01T14:44:19.715Z,14.40
2022-11-01T14:46:49.761Z,14.23
2022-11-01T14:49:33.740Z,15.60
2022-11-01T14:54:44.774Z,16.15
2022-11-01T14:57:28.371Z,16.60
2022-11-01T14:59:56.424Z,15.85
2022-11-01T15:02:25.749Z,17.05
2022-11-01T15:05:00.735Z,17.58
2022-11-01T15:07:32.038Z,17.77
2022-11-01T15:10:06.872Z,19.45
2022-11-01T15:12:47.841Z,17.58
2022-11-01T15:15:19.161Z,18.42
2022-11-01T15:18:16.326Z,18.33
2022-11-01T15:20:48.981Z,17.23
2022-11-01T15:23:30.346Z,17.67
2022-11-01T15:25:58.663Z,17.25
2022-11-01T15:28:31.044Z,18.58
2022-11-01T15:31:01.482Z,18.05
2022-11-01T15:33:30.988Z,17.30
2022-11-01T15:36:05.321Z,19.92
2022-11-01T15:38:49.612Z,17.42
2022-11-01T15:41:28.665Z,19.08
2022-11-01T15:43:57.895Z,18.48
2022-11-01T15:46:28.306Z,18.80
2022-11-01T15:48:58.253Z,19.60
2022-11-01T15:51:29.137Z,18.25
2022-11-01T15:54:25.691Z,20.17
2022-11-01T15:57:00.863Z,22.20
2022-11-01T15:59:42.485Z,21.80
2022-11-01T16:02:18.572Z,18.38
2022-11-01T16:04:47.088Z,20.38
2022-11-01T16:07:19.606Z,21.55
2022-11-01T16:09:47.970Z,20.80
2022-11-01T16:12:27.259Z,20.23
2022-11-01T16:14:58.657Z,20.90
2022-11-01T16:17:39.594Z,20.17
2022-11-01T16:20:48.001Z,21.30
2022-11-01T16:23:28.605Z,20.98
2022-11-01T16:26:07.918Z,22.00
2022-11-01T16:28:44.566Z,21.70
2022-11-01T16:31:22.703Z,20.80
2022-11-01T16:33:50.396Z,16.55
2022-11-01T16:36:20.152Z,16.70
2022-11-01T16:38:49.275Z,15.25
2022-11-01T16:41:24.167Z,17.25
2022-11-01T16:43:56.393Z,16.50
2022-11-01T16:46:25.098Z,16.92
2022-11-01T16:48:58.294Z,18.58
2022-11-01T16:51:28.586Z,17.95
2022-11-01T16:53:57.323Z,18.20
2022-11-01T16:56:39.844Z,17.48
2022-11-01T16:59:27.437Z,18.58
2022-11-01T17:01:58.149Z,17.52
2022-11-01T17:04:29.470Z,17.52
2022-11-01T17:06:59.836Z,17.02
2022-11-01T17:09:29.471Z,18.90
2022-11-01T17:11:58.835Z,18.40
2022-11-01T17:14:26.416Z,18.63
2022-11-01T17:16:53.779Z,20.20
2022-11-01T17:19:29.862Z,20.67
2022-11-01T17:22:04.282Z,19.20
2022-11-01T17:24:33.303Z,19.17
2022-11-01T17:27:05.175Z,19.58
2022-11-01T17:29:32.458Z,19.88
2022-11-01T17:32:00.971Z,19.63
2022-11-01T17:34:28.956Z,18.95
2022-11-01T17:36:57.510Z,19.67
2022-11-01T17:39:27.520Z,19.83
2022-11-01T17:41:55.092Z,22.08
2022-11-01T17:44:22.886Z,21.00
2022-11-01T17:46:49.893Z,21.80
2022-11-01T17:49:21.424Z,19.63
2022-11-01T17:51:53.283Z,19.15
2022-11-01T17:54:21.945Z,21.95
2022-11-01T17:56:50.242Z,20.63
2022-11-01T17:59:17.188Z,19.00
2022-11-01T18:01:47.811Z,19.70
2022-11-01T18:04:14.907Z,20.52
2022-11-01T18:06:42.498Z,18.13
2022-11-01T18:09:27.200Z,17.25
2022-11-01T18:12:02.980Z,15.88
2022-11-01T18:14:56.215Z,15.45
2022-11-01T18:17:49.097Z,15.60
2022-11-01T18:20:44.462Z,13.43
2022-11-01T18:23:15.038Z,12.45
2022-11-01T18:25:47.635Z,12.50
2022-11-01T18:28:26.824Z,11.15
2022-11-01T18:31:11.426Z,12.00
2022-11-01T18:34:07.177Z,12.35
2022-11-01T18:37:08.956Z,11.95
2022-11-01T18:39:42.050Z,12.93
2022-11-01T18:42:10.500Z,12.23
2022-11-01T18:44:40.242Z,11.32
2022-11-01T18:47:24.202Z,11.02
2022-11-01T18:52:22.544Z,10.27
2022-11-01T18:54:56.918Z,9.90
2022-11-01T18:57:32.375Z,9.02
2022-11-01T19:00:01.363Z,8.20
2022-11-01T19:02:28.929Z,8.45
2022-11-01T19:05:10.926Z,8.23
2022-11-01T19:08:04.968Z,7.70
2022-11-01T19:10:28.292Z,8.27
2022-11-01T19:12:56.151Z,7.53
2022-11-01T19:15:30.677Z,6.80
2022-11-01T19:18:07.530Z,6.82
2022-11-01T19:21:01.159Z,7.15
2022-11-01T19:23:38.710Z,7.17
2022-11-01T19:26:32.529Z,6.70
2022-11-01T19:29:26.234Z,7.53
2022-11-01T19:32:04.735Z,7.90
2022-11-01T19:34:38.019Z,6.55
2022-11-01T19:37:20.512Z,6.45
2022-11-01T19:39:47.829Z,6.63
2022-11-01T19:42:20.944Z,5.78
2022-11-01T19:44:48.016Z,6.20
2022-11-01T19:47:35.475Z,5.95
2022-11-01T19:50:02.527Z,6.60
2022-11-01T19:52:36.458Z,6.28
2022-11-01T19:55:39.576Z,6.05
2022-11-01T19:58:25.257Z,7.57
2022-11-01T20:01:00.666Z,6.22
2022-11-01T20:03:56.183Z,6.85
2022-11-01T20:06:28.934Z,7.15
2022-11-01T20:09:01.426Z,7.23
2022-11-01T20:11:33.295Z,6.95
2022-11-01T20:14:01.143Z,7.45
2022-11-01T20:16:28.237Z,6.95
2022-11-01T20:18:58.746Z,7.85
2022-11-01T20:21:25.794Z,7.00
2022-11-01T20:23:52.713Z,6.90
2022-11-01T20:26:19.630Z,6.80
2022-11-01T20:28:46.615Z,6.88
2022-11-01T20:31:13.629Z,6.75
2022-11-01T20:33:41.035Z,6.97
2022-11-01T20:36:11.207Z,7.00
2022-11-01T20:38:39.246Z,6.18
2022-11-01T20:41:06.556Z,6.93
2022-11-01T20:43:33.545Z,6.35
2022-11-01T20:46:00.438Z,6.88
2022-11-01T20:48:27.506Z,5.55
2022-11-01T20:50:54.462Z,5.45
2022-11-01T20:53:23.713Z,5.93
2022-11-01T20:55:54.234Z,6.32
2022-11-01T20:58:21.214Z,6.05
2022-11-01T21:00:48.408Z,5.70
2022-11-01T21:03:20.233Z,6.15
2022-11-01T21:05:49.186Z,6.05
2022-11-01T21:08:22.567Z,5.50
2022-11-01T21:10:57.587Z,6.22
2022-11-01T21:13:37.108Z,5.60
2022-11-01T21:16:16.422Z,5.90
2022-11-01T21:18:45.812Z,5.63
2022-11-01T21:21:15.785Z,5.63
2022-11-01T21:23:46.464Z,5.82
2022-11-01T21:26:18.290Z,5.10
2022-11-01T21:28:49.272Z,4.80
2022-11-01T21:31:29.691Z,6.40
2022-11-01T21:34:11.964Z,5.05
2022-11-01T21:36:48.927Z,5.72
2022-11-01T21:39:20.872Z,5.97
2022-11-01T21:41:53.675Z,5.45
2022-11-01T21:44:28.317Z,5.73
2022-11-01T21:47:19.093Z,5.05
2022-11-01T21:49:46.336Z,5.15
2022-11-01T21:52:13.760Z,4.45
2022-11-01T21:54:42.958Z,5.80
2022-11-01T21:57:11.437Z,5.50
2022-11-01T21:59:39.375Z,6.00
2022-11-01T22:02:09.469Z,4.60
2022-11-01T22:04:36.498Z,5.50
2022-11-01T22:07:06.001Z,4.78
2022-11-01T22:09:34.156Z,4.78
2022-11-01T22:12:01.428Z,5.07
2022-11-01T22:14:28.452Z,4.65
2022-11-01T22:16:55.473Z,4.60
2022-11-01T22:19:28.483Z,5.38
2022-11-01T22:21:55.640Z,5.15
2022-11-01T22:24:23.657Z,4.70
2022-11-01T22:26:51.056Z,5.63
2022-11-01T22:29:18.320Z,5.22
2022-11-01T22:31:45.501Z,5.65
2022-11-01T22:34:12.821Z,4.90
2022-11-01T22:36:41.632Z,5.28
2022-11-01T22:39:23.071Z,5.13
2022-11-01T22:41:50.126Z,5.03
2022-11-01T22:44:23.474Z,4.90
2022-11-01T22:46:57.958Z,5.07
2022-11-01T22:49:33.449Z,5.43
2022-11-01T22:52:03.616Z,5.30
2022-11-01T22:54:52.299Z,4.90
2022-11-01T22:57:27.309Z,4.75
2022-11-01T22:59:59.997Z,5.18
2022-11-01T23:02:31.388Z,4.72
2022-11-01T23:05:10.477Z,4.88
2022-11-01T23:07:40.180Z,4.53
2022-11-01T23:10:30.978Z,5.55
2022-11-01T23:13:21.402Z,5.43
2022-11-01T23:15:48.687Z,4.43
2022-11-01T23:18:22.607Z,4.68
2022-11-01T23:23:25.129Z,4.60
2022-11-01T23:25:54.079Z,4.82
2022-11-01T23:28:23.298Z,4.50
2022-11-01T23:30:51.735Z,5.07
2022-11-01T23:33:21.264Z,3.85
2022-11-01T23:35:55.322Z,4.68
2022-11-01T23:38:44.146Z,4.72
2022-11-01T23:41:28.381Z,3.78
2022-11-01T23:43:58.104Z,4.80
2022-11-01T23:46:26.843Z,4.03
2022-11-01T23:49:03.495Z,4.80
2022-11-01T23:51:31.442Z,4.95
2022-11-01T23:53:59.140Z,4.47
2022-11-01T23:56:26.502Z,4.30
2022-11-01T23:59:02.147Z,4.90
